createdAt,value
2018-09-25T00:00:49.315Z,20.27
2018-09-25T00:01:49.322Z,20.27
2018-09-25T00:02:49.296Z,20.23
2018-09-25T00:03:49.284Z,20.25
2018-09-25T00:04:49.271Z,20.23
2018-09-25T00:05:49.263Z,20.27
2018-09-25T00:06:49.265Z,20.26
2018-09-25T00:07:49.243Z,20.34
2018-09-25T00:08:49.230Z,20.31
2018-09-25T00:09:49.219Z,20.23
2018-09-25T00:10:49.206Z,20.17
2018-09-25T00:11:49.229Z,20.26
2018-09-25T00:12:49.185Z,20.27
2018-09-25T00:13:49.173Z,20.27
2018-09-25T00:14:49.164Z,20.19
2018-09-25T00:15:49.154Z,20.12
2018-09-25T00:16:49.140Z,20.26
2018-09-25T00:17:49.147Z,20.27
2018-09-25T00:18:49.119Z,20.13
2018-09-25T00:19:49.108Z,20.25
2018-09-25T00:20:49.098Z,20.17
2018-09-25T00:21:49.088Z,20.17
2018-09-25T00:22:49.093Z,20.10
2018-09-25T00:23:49.064Z,20.23
2018-09-25T00:24:49.054Z,20.17
2018-09-25T00:25:49.044Z,20.17
2018-09-25T00:26:49.032Z,20.20
2018-09-25T00:27:49.040Z,20.12
2018-09-25T00:28:49.015Z,20.15
2018-09-25T00:29:48.998Z,20.20
2018-09-25T00:30:48.988Z,20.17
2018-09-25T00:31:48.976Z,20.23
2018-09-25T00:32:48.983Z,20.17
2018-09-25T00:33:48.960Z,20.22
2018-09-25T00:34:48.944Z,20.22
2018-09-25T00:35:48.933Z,20.13
2018-09-25T00:36:48.921Z,20.13
2018-09-25T00:37:48.927Z,20.17
2018-09-25T00:38:48.900Z,20.13
2018-09-25T00:39:48.889Z,20.15
2018-09-25T00:40:48.878Z,20.12
2018-09-25T00:41:48.868Z,20.10
2018-09-25T00:42:48.870Z,20.13
2018-09-25T00:43:48.845Z,20.15
2018-09-25T00:44:48.835Z,20.13
2018-09-25T00:45:48.824Z,20.12
2018-09-25T00:46:48.815Z,20.08
2018-09-25T00:47:48.816Z,20.10
2018-09-25T00:48:48.791Z,20.15
2018-09-25T00:49:48.783Z,20.15
2018-09-25T00:50:48.770Z,20.10
2018-09-25T00:51:48.758Z,20.07
2018-09-25T00:52:48.764Z,20.02
2018-09-25T00:53:48.739Z,20.13
2018-09-25T00:54:48.726Z,19.98
2018-09-25T00:55:48.715Z,20.07
2018-09-25T00:56:48.703Z,20.10
2018-09-25T00:57:48.709Z,20.13
2018-09-25T00:58:48.691Z,20.12
2018-09-25T00:59:48.670Z,20.12
2018-09-25T01:00:48.661Z,20.10
2018-09-25T01:01:48.651Z,20.05
2018-09-25T01:02:48.654Z,20.12
2018-09-25T01:03:48.630Z,20.02
2018-09-25T01:04:48.618Z,20.05
2018-09-25T01:05:48.605Z,20.07
2018-09-25T01:06:48.594Z,20.01
2018-09-25T01:07:48.611Z,20.01
2018-09-25T01:08:48.572Z,20.07
2018-09-25T01:09:48.560Z,20.01
2018-09-25T01:10:48.551Z,19.97
2018-09-25T01:11:48.544Z,20.00
2018-09-25T01:12:48.528Z,20.04
2018-09-25T01:13:48.539Z,19.97
2018-09-25T01:14:48.508Z,20.01
2018-09-25T01:15:48.495Z,19.98
2018-09-25T01:16:48.484Z,19.97
2018-09-25T01:17:48.473Z,19.98
2018-09-25T01:18:48.481Z,20.01
2018-09-25T01:19:48.451Z,19.97
2018-09-25T01:20:48.441Z,19.92
2018-09-25T01:21:48.437Z,19.92
2018-09-25T01:22:48.418Z,19.94
2018-09-25T01:23:48.423Z,19.89
2018-09-25T01:24:48.396Z,19.98
2018-09-25T01:25:48.391Z,19.97
2018-09-25T01:26:48.374Z,19.94
2018-09-25T01:27:48.380Z,19.89
2018-09-25T01:28:48.366Z,19.89
2018-09-25T01:29:48.340Z,19.90
2018-09-25T01:30:48.330Z,19.90
2018-09-25T01:31:48.319Z,19.97
2018-09-25T01:32:48.309Z,19.90
2018-09-25T01:33:48.312Z,19.95
2018-09-25T01:34:48.286Z,19.90
2018-09-25T01:35:48.275Z,19.89
2018-09-25T01:36:48.264Z,19.92
2018-09-25T01:37:48.253Z,19.92
2018-09-25T01:38:48.257Z,19.92
2018-09-25T01:39:48.231Z,19.94
2018-09-25T01:40:48.220Z,19.97
2018-09-25T01:41:48.211Z,19.90
2018-09-25T01:42:48.199Z,19.95
2018-09-25T01:43:48.203Z,19.95
2018-09-25T01:44:48.178Z,19.90
2018-09-25T01:45:48.165Z,19.90
2018-09-25T01:46:48.156Z,19.90
2018-09-25T01:47:48.143Z,19.87
2018-09-25T01:48:48.159Z,19.83
2018-09-25T01:49:48.122Z,19.89
2018-09-25T01:50:48.111Z,19.89
2018-09-25T01:51:48.101Z,19.87
2018-09-25T01:52:48.089Z,19.80
2018-09-25T01:53:48.081Z,19.90
2018-09-25T01:54:48.081Z,19.76
2018-09-25T01:55:48.064Z,19.76
2018-09-25T01:56:48.047Z,19.79
2018-09-25T01:57:48.035Z,19.90
2018-09-25T01:58:48.023Z,19.78
2018-09-25T01:59:48.028Z,19.79
2018-09-25T02:00:48.003Z,19.83
2018-09-25T02:01:47.990Z,19.76
2018-09-25T02:02:47.981Z,19.79
2018-09-25T02:03:47.968Z,19.78
2018-09-25T02:04:47.972Z,19.80
2018-09-25T02:05:47.972Z,19.79
2018-09-25T02:06:47.937Z,19.78
2018-09-25T02:07:47.924Z,19.78
2018-09-25T02:08:47.920Z,19.79
2018-09-25T02:09:47.917Z,19.78
2018-09-25T02:10:47.900Z,19.79
2018-09-25T02:11:47.880Z,19.80
2018-09-25T02:12:47.870Z,19.79
2018-09-25T02:13:47.858Z,19.75
2018-09-25T02:14:47.861Z,19.82
2018-09-25T02:15:47.836Z,19.78
2018-09-25T02:16:47.825Z,19.80
2018-09-25T02:17:47.819Z,19.76
2018-09-25T02:18:47.820Z,19.75
2018-09-25T02:19:47.808Z,19.78
2018-09-25T02:20:47.783Z,19.78
2018-09-25T02:21:47.769Z,19.76
2018-09-25T02:22:47.761Z,19.70
2018-09-25T02:23:47.749Z,19.75
2018-09-25T02:24:47.753Z,19.78
2018-09-25T02:25:47.728Z,19.82
2018-09-25T02:26:47.717Z,19.80
2018-09-25T02:27:47.704Z,19.70
2018-09-25T02:28:47.695Z,19.80
2018-09-25T02:29:47.713Z,19.83
2018-09-25T02:30:47.671Z,19.75
2018-09-25T02:31:47.660Z,19.71
2018-09-25T02:32:47.649Z,19.70
2018-09-25T02:33:47.640Z,19.70
2018-09-25T02:34:47.628Z,19.68
2018-09-25T02:35:47.633Z,19.72
2018-09-25T02:36:47.606Z,19.79
2018-09-25T02:37:47.593Z,19.67
2018-09-25T02:38:47.583Z,19.71
2018-09-25T02:39:47.574Z,19.71
2018-09-25T02:40:47.576Z,19.70
2018-09-25T02:41:47.552Z,19.72
2018-09-25T02:42:47.539Z,19.71
2018-09-25T02:43:47.528Z,19.67
2018-09-25T02:44:47.521Z,19.68
2018-09-25T02:45:47.521Z,19.64
2018-09-25T02:46:47.495Z,19.71
2018-09-25T02:47:47.488Z,19.67
2018-09-25T02:48:47.473Z,19.68
2018-09-25T02:49:47.464Z,19.61
2018-09-25T02:50:47.466Z,19.72
2018-09-25T02:51:47.440Z,19.67
2018-09-25T02:52:47.435Z,19.67
2018-09-25T02:53:47.418Z,19.65
2018-09-25T02:54:47.409Z,19.68
2018-09-25T02:55:47.412Z,19.65
2018-09-25T02:56:47.389Z,19.68
2018-09-25T02:57:47.379Z,19.70
2018-09-25T02:58:47.364Z,19.65
2018-09-25T02:59:47.353Z,19.64
2018-09-25T03:00:47.369Z,19.68
2018-09-25T03:01:47.332Z,19.58
2018-09-25T03:02:47.320Z,19.65
2018-09-25T03:03:47.312Z,19.61
2018-09-25T03:04:47.298Z,19.60
2018-09-25T03:05:47.305Z,19.65
2018-09-25T03:06:47.278Z,19.62
2018-09-25T03:07:47.265Z,19.62
2018-09-25T03:08:47.254Z,19.60
2018-09-25T03:09:47.245Z,19.64
2018-09-25T03:10:47.260Z,19.62
2018-09-25T03:11:47.227Z,19.62
2018-09-25T03:12:47.212Z,19.62
2018-09-25T03:13:47.199Z,19.60
2018-09-25T03:14:47.194Z,19.60
2018-09-25T03:15:47.182Z,19.57
2018-09-25T03:16:47.201Z,19.58
2018-09-25T03:17:47.174Z,19.55
2018-09-25T03:18:47.143Z,19.62
2018-09-25T03:19:47.138Z,19.57
2018-09-25T03:20:47.124Z,19.55
2018-09-25T03:21:47.126Z,19.62
2018-09-25T03:22:47.110Z,19.65
2018-09-25T03:23:47.115Z,19.55
2018-09-25T03:24:47.078Z,19.61
2018-09-25T03:25:47.067Z,19.62
2018-09-25T03:26:47.077Z,19.57
2018-09-25T03:27:47.048Z,19.55
2018-09-25T03:28:47.041Z,19.58
2018-09-25T03:29:47.024Z,19.57
2018-09-25T03:30:47.014Z,19.58
2018-09-25T03:31:47.027Z,19.57
2018-09-25T03:32:46.991Z,19.53
2018-09-25T03:33:46.984Z,19.50
2018-09-25T03:34:46.982Z,19.53
2018-09-25T03:35:46.959Z,19.61
2018-09-25T03:36:46.966Z,19.64
2018-09-25T03:37:46.938Z,19.50
2018-09-25T03:38:46.928Z,19.49
2018-09-25T03:39:46.919Z,19.47
2018-09-25T03:40:46.906Z,19.50
2018-09-25T03:41:46.905Z,19.53
2018-09-25T03:42:46.880Z,19.58
2018-09-25T03:43:46.874Z,19.55
2018-09-25T03:44:46.862Z,19.50
2018-09-25T03:45:46.856Z,19.47
2018-09-25T03:46:46.860Z,19.55
2018-09-25T03:47:46.826Z,19.49
2018-09-25T03:48:46.819Z,19.52
2018-09-25T03:49:46.802Z,19.50
2018-09-25T03:50:46.801Z,19.46
2018-09-25T03:51:46.814Z,19.45
2018-09-25T03:52:46.769Z,19.52
2018-09-25T03:53:46.759Z,19.46
2018-09-25T03:54:46.757Z,19.43
2018-09-25T03:55:46.737Z,19.46
2018-09-25T03:56:46.728Z,19.43
2018-09-25T03:57:46.736Z,19.45
2018-09-25T03:58:46.705Z,19.50
2018-09-25T03:59:46.696Z,19.47
2018-09-25T04:00:46.687Z,19.45
2018-09-25T04:01:46.671Z,19.46
2018-09-25T04:02:46.681Z,19.42
2018-09-25T04:03:46.651Z,19.52
2018-09-25T04:04:46.639Z,19.47
2018-09-25T04:05:46.627Z,19.45
2018-09-25T04:06:46.616Z,19.43
2018-09-25T04:07:46.622Z,19.38
2018-09-25T04:08:46.597Z,19.40
2018-09-25T04:09:46.582Z,19.39
2018-09-25T04:10:46.572Z,19.32
2018-09-25T04:11:46.563Z,19.35
2018-09-25T04:12:46.578Z,19.32
2018-09-25T04:13:46.540Z,19.32
2018-09-25T04:14:46.529Z,19.35
2018-09-25T04:15:46.519Z,19.25
2018-09-25T04:16:46.507Z,19.32
2018-09-25T04:17:46.513Z,19.25
2018-09-25T04:18:46.487Z,19.25
2018-09-25T04:19:46.476Z,19.35
2018-09-25T04:20:46.468Z,19.27
2018-09-25T04:21:46.451Z,19.23
2018-09-25T04:22:46.457Z,19.25
2018-09-25T04:23:46.433Z,19.23
2018-09-25T04:24:46.418Z,19.20
2018-09-25T04:25:46.410Z,19.25
2018-09-25T04:26:46.399Z,19.25
2018-09-25T04:27:46.418Z,19.25
2018-09-25T04:28:46.375Z,19.21
2018-09-25T04:29:46.561Z,19.23
2018-09-25T04:30:46.363Z,19.20
2018-09-25T04:31:46.342Z,19.21
2018-09-25T04:32:46.350Z,19.23
2018-09-25T04:33:46.332Z,19.27
2018-09-25T04:34:46.308Z,19.20
2018-09-25T04:35:46.299Z,19.20
2018-09-25T04:36:46.286Z,19.13
2018-09-25T04:37:53.330Z,19.21
2018-09-25T04:38:46.269Z,19.23
2018-09-25T04:39:46.252Z,19.17
2018-09-25T04:40:46.243Z,19.13
2018-09-25T04:41:46.232Z,19.25
2018-09-25T04:42:46.249Z,19.27
2018-09-25T04:43:46.210Z,19.21
2018-09-25T04:44:46.198Z,19.16
2018-09-25T04:45:46.188Z,19.17
2018-09-25T04:46:46.175Z,19.02
2018-09-25T04:47:46.189Z,19.17
2018-09-25T04:48:46.173Z,19.10
2018-09-25T04:49:46.145Z,19.10
2018-09-25T04:50:46.136Z,19.06
2018-09-25T04:51:46.120Z,19.23
2018-09-25T04:52:46.111Z,19.09
2018-09-25T04:53:46.113Z,19.23
2018-09-25T04:54:46.089Z,19.10
2018-09-25T04:55:46.117Z,19.09
2018-09-25T04:56:46.067Z,19.13
2018-09-25T04:57:46.055Z,19.15
2018-09-25T04:58:46.062Z,19.17
2018-09-25T04:59:46.034Z,19.20
2018-09-25T05:00:46.023Z,19.24
2018-09-25T05:01:46.013Z,19.16
2018-09-25T05:02:46.001Z,19.13
2018-09-25T05:03:46.006Z,19.06
2018-09-25T05:04:45.978Z,19.10
2018-09-25T05:05:45.970Z,19.06
2018-09-25T05:06:46.016Z,19.15
2018-09-25T05:07:45.947Z,19.16
2018-09-25T05:08:45.956Z,19.10
2018-09-25T05:09:45.925Z,19.17
2018-09-25T05:10:45.913Z,19.17
2018-09-25T05:11:45.907Z,19.12
2018-09-25T05:12:45.890Z,19.12
2018-09-25T05:13:45.904Z,19.13
2018-09-25T05:14:45.944Z,19.12
2018-09-25T05:15:45.857Z,19.16
2018-09-25T05:16:45.854Z,19.10
2018-09-25T05:17:45.835Z,19.15
2018-09-25T05:18:45.839Z,19.06
2018-09-25T05:19:45.814Z,19.07
2018-09-25T05:20:45.801Z,19.12
2018-09-25T05:21:45.796Z,19.05
2018-09-25T05:22:45.780Z,19.07
2018-09-25T05:23:45.795Z,19.10
2018-09-25T05:24:45.807Z,19.07
2018-09-25T05:25:45.744Z,19.13
2018-09-25T05:26:45.738Z,19.10
2018-09-25T05:27:45.722Z,19.07
2018-09-25T05:28:45.712Z,19.10
2018-09-25T05:29:45.728Z,19.05
2018-09-25T05:30:45.710Z,19.12
2018-09-25T05:31:45.677Z,19.12
2018-09-25T05:32:45.670Z,19.15
2018-09-25T05:33:45.662Z,19.06
2018-09-25T05:34:45.664Z,19.12
2018-09-25T05:35:45.647Z,19.07
2018-09-25T05:36:45.620Z,19.10
2018-09-25T05:37:45.611Z,19.05
2018-09-25T05:38:45.602Z,19.13
2018-09-25T05:39:45.607Z,19.10
2018-09-25T05:40:45.588Z,19.10
2018-09-25T05:41:45.571Z,19.09
2018-09-25T05:42:45.554Z,19.09
2018-09-25T05:43:45.543Z,19.15
2018-09-25T05:44:45.548Z,19.07
2018-09-25T05:45:45.522Z,19.09
2018-09-25T05:46:45.513Z,19.02
2018-09-25T05:47:45.513Z,19.15
2018-09-25T05:48:45.596Z,19.13
2018-09-25T05:49:45.492Z,19.12
2018-09-25T05:50:45.467Z,19.10
2018-09-25T05:51:45.460Z,19.10
2018-09-25T05:52:45.444Z,19.07
2018-09-25T05:53:45.454Z,19.12
2018-09-25T05:54:45.452Z,19.10
2018-09-25T05:55:45.415Z,19.09
2018-09-25T05:56:45.401Z,19.15
2018-09-25T05:57:45.389Z,19.12
2018-09-25T05:58:45.381Z,19.05
2018-09-25T05:59:45.397Z,19.10
2018-09-25T06:00:45.357Z,19.13
2018-09-25T06:01:45.349Z,19.13
2018-09-25T06:02:45.338Z,19.13
2018-09-25T06:03:45.323Z,19.16
2018-09-25T06:04:45.314Z,19.12
2018-09-25T06:05:45.322Z,19.13
2018-09-25T06:06:45.290Z,19.06
2018-09-25T06:07:45.281Z,19.09
2018-09-25T06:08:45.270Z,19.13
2018-09-25T06:09:45.370Z,19.07
2018-09-25T06:10:45.268Z,19.10
2018-09-25T06:11:45.234Z,19.09
2018-09-25T06:12:45.222Z,19.13
2018-09-25T06:13:45.211Z,19.13
2018-09-25T06:14:45.202Z,19.07
2018-09-25T06:15:45.244Z,19.05
2018-09-25T06:16:45.188Z,19.07
2018-09-25T06:17:45.166Z,19.12
2018-09-25T06:18:45.188Z,19.09
2018-09-25T06:19:45.144Z,19.10
2018-09-25T06:20:45.149Z,19.20
2018-09-25T06:21:45.120Z,19.09
2018-09-25T06:22:45.110Z,19.10
2018-09-25T06:23:45.098Z,19.13
2018-09-25T06:24:45.088Z,19.10
2018-09-25T06:25:45.093Z,19.06
2018-09-25T06:26:45.071Z,19.16
2018-09-25T06:27:45.065Z,19.10
2018-09-25T06:28:45.106Z,19.15
2018-09-25T06:29:45.032Z,19.12
2018-09-25T06:30:45.038Z,19.02
2018-09-25T06:31:45.014Z,19.12
2018-09-25T06:32:44.999Z,19.10
2018-09-25T06:33:45.005Z,19.09
2018-09-25T06:34:44.985Z,19.16
2018-09-25T06:35:44.983Z,19.15
2018-09-25T06:36:44.953Z,19.09
2018-09-25T06:37:44.946Z,19.15
2018-09-25T06:38:44.961Z,19.10
2018-09-25T06:39:44.918Z,19.15
2018-09-25T06:40:44.988Z,19.09
2018-09-25T06:41:44.896Z,19.06
2018-09-25T06:42:44.886Z,19.07
2018-09-25T06:43:44.875Z,19.10
2018-09-25T06:44:44.871Z,19.15
2018-09-25T06:45:44.857Z,19.07
2018-09-25T06:46:44.854Z,19.06
2018-09-25T06:47:44.827Z,19.09
2018-09-25T06:48:44.820Z,19.16
2018-09-25T06:49:44.808Z,19.12
2018-09-25T06:50:44.800Z,19.15
2018-09-25T06:51:44.818Z,19.13
2018-09-25T06:52:44.772Z,19.17
2018-09-25T06:53:44.764Z,19.07
2018-09-25T06:54:44.766Z,19.05
2018-09-25T06:55:44.737Z,19.15
2018-09-25T06:56:44.763Z,19.10
2018-09-25T06:57:44.718Z,19.10
2018-09-25T06:58:44.705Z,19.17
2018-09-25T06:59:44.693Z,19.16
2018-09-25T07:00:44.725Z,19.13
2018-09-25T07:01:44.686Z,19.12
2018-09-25T07:02:44.659Z,19.16
2018-09-25T07:03:44.648Z,19.17
2018-09-25T07:04:44.636Z,19.21
2018-09-25T07:05:44.626Z,19.23
2018-09-25T07:06:44.629Z,19.20
2018-09-25T07:07:44.604Z,19.16
2018-09-25T07:08:44.591Z,19.12
2018-09-25T07:09:44.641Z,19.10
2018-09-25T07:10:44.716Z,19.13
2018-09-25T07:11:44.573Z,19.13
2018-09-25T07:12:44.548Z,19.20
2018-09-25T07:13:44.588Z,19.23
2018-09-25T07:14:44.524Z,19.24
2018-09-25T07:15:44.518Z,19.27
2018-09-25T07:16:44.520Z,19.24
2018-09-25T07:17:44.564Z,19.24
2018-09-25T07:18:44.483Z,19.28
2018-09-25T07:19:44.469Z,19.24
2018-09-25T07:20:44.457Z,19.24
2018-09-25T07:21:44.473Z,19.23
2018-09-25T07:22:44.484Z,19.24
2018-09-25T07:23:44.424Z,19.24
2018-09-25T07:24:44.524Z,19.25
2018-09-25T07:25:44.405Z,19.27
2018-09-25T07:26:44.391Z,19.27
2018-09-25T07:27:44.399Z,19.23
2018-09-25T07:28:44.374Z,19.25
2018-09-25T07:29:44.358Z,19.25
2018-09-25T07:30:44.360Z,19.23
2018-09-25T07:31:44.335Z,19.27
2018-09-25T07:32:44.339Z,19.20
2018-09-25T07:33:44.314Z,19.23
2018-09-25T07:34:44.302Z,19.25
2018-09-25T07:35:44.292Z,19.24
2018-09-25T07:36:44.284Z,19.24
2018-09-25T07:37:44.294Z,19.25
2018-09-25T07:38:44.257Z,19.21
2018-09-25T07:39:44.329Z,19.20
2018-09-25T07:40:44.236Z,19.27
2018-09-25T07:41:44.224Z,19.17
2018-09-25T07:42:44.227Z,19.24
2018-09-25T07:43:44.202Z,19.24
2018-09-25T07:44:44.194Z,19.27
2018-09-25T07:45:44.179Z,19.23
2018-09-25T07:46:44.168Z,19.32
2018-09-25T07:47:44.172Z,19.27
2018-09-25T07:48:44.146Z,19.23
2018-09-25T07:49:44.134Z,19.28
2018-09-25T07:50:44.124Z,19.25
2018-09-25T07:51:44.115Z,19.31
2018-09-25T07:52:44.120Z,19.25
2018-09-25T07:53:44.103Z,19.25
2018-09-25T07:54:44.078Z,19.24
2018-09-25T07:55:44.212Z,19.27
2018-09-25T07:56:44.061Z,19.25
2018-09-25T07:57:44.068Z,19.27
2018-09-25T07:58:44.036Z,19.23
2018-09-25T07:59:44.037Z,19.23
2018-09-25T08:00:44.015Z,19.27
2018-09-25T08:01:44.023Z,19.28
2018-09-25T08:02:44.017Z,19.30
2018-09-25T08:03:43.993Z,19.32
2018-09-25T08:04:43.974Z,19.25
2018-09-25T08:05:43.956Z,19.39
2018-09-25T08:06:43.945Z,19.31
2018-09-25T08:07:43.943Z,19.39
2018-09-25T08:08:43.949Z,19.32
2018-09-25T08:09:43.912Z,19.35
2018-09-25T08:10:43.911Z,19.43
2018-09-25T08:11:43.889Z,19.35
2018-09-25T08:12:43.881Z,19.38
2018-09-25T08:13:43.881Z,19.43
2018-09-25T08:14:43.858Z,19.47
2018-09-25T08:15:43.844Z,19.42
2018-09-25T08:16:43.836Z,19.47
2018-09-25T08:17:43.821Z,19.45
2018-09-25T08:18:43.826Z,19.47
2018-09-25T08:19:43.799Z,19.42
2018-09-25T08:20:43.787Z,19.42
2018-09-25T08:21:43.781Z,19.43
2018-09-25T08:22:43.780Z,19.43
2018-09-25T08:23:43.768Z,19.45
2018-09-25T08:24:43.744Z,19.45
2018-09-25T08:25:43.734Z,19.46
2018-09-25T08:26:43.736Z,19.43
2018-09-25T08:27:43.742Z,19.47
2018-09-25T08:28:43.734Z,19.45
2018-09-25T08:29:43.751Z,19.55
2018-09-25T08:30:43.677Z,19.43
2018-09-25T08:31:43.666Z,19.47
2018-09-25T08:32:43.655Z,19.52
2018-09-25T08:33:43.658Z,19.45
2018-09-25T08:34:43.632Z,19.50
2018-09-25T08:35:43.623Z,19.53
2018-09-25T08:36:43.611Z,19.53
2018-09-25T08:37:43.599Z,19.47
2018-09-25T08:38:43.689Z,19.46
2018-09-25T08:39:43.579Z,19.53
2018-09-25T08:40:43.569Z,19.53
2018-09-25T08:41:43.559Z,19.49
2018-09-25T08:42:43.550Z,19.53
2018-09-25T08:43:43.550Z,19.58
2018-09-25T08:44:43.524Z,19.55
2018-09-25T08:45:43.564Z,19.57
2018-09-25T08:46:43.499Z,19.49
2018-09-25T08:47:43.490Z,19.55
2018-09-25T08:48:43.479Z,19.50
2018-09-25T08:49:43.484Z,19.58
2018-09-25T08:50:43.457Z,19.47
2018-09-25T08:51:43.445Z,19.61
2018-09-25T08:52:43.437Z,19.53
2018-09-25T08:53:43.423Z,19.64
2018-09-25T08:54:43.433Z,19.57
2018-09-25T08:55:43.401Z,19.60
2018-09-25T08:56:43.394Z,19.60
2018-09-25T08:57:43.378Z,19.55
2018-09-25T08:58:43.376Z,19.58
2018-09-25T08:59:43.373Z,19.57
2018-09-25T09:00:43.350Z,19.61
2018-09-25T09:01:43.338Z,19.55
2018-09-25T09:02:43.330Z,19.57
2018-09-25T09:03:43.314Z,19.57
2018-09-25T09:04:43.318Z,19.50
2018-09-25T09:05:43.293Z,19.65
2018-09-25T09:06:43.281Z,19.61
2018-09-25T09:07:43.270Z,19.52
2018-09-25T09:08:43.292Z,19.60
2018-09-25T09:09:43.269Z,19.62
2018-09-25T09:10:43.275Z,19.58
2018-09-25T09:11:43.266Z,19.60
2018-09-25T09:12:43.261Z,19.60
2018-09-25T09:13:43.204Z,19.58
2018-09-25T09:14:43.211Z,19.61
2018-09-25T09:15:43.183Z,19.57
2018-09-25T09:16:43.172Z,19.64
2018-09-25T09:17:43.159Z,19.60
2018-09-25T09:18:43.149Z,19.61
2018-09-25T09:19:43.208Z,19.70
2018-09-25T09:20:43.128Z,19.61
2018-09-25T09:21:43.117Z,19.70
2018-09-25T09:22:43.106Z,19.67
2018-09-25T09:23:43.093Z,19.68
2018-09-25T09:24:43.134Z,19.68
2018-09-25T09:25:43.073Z,19.68
2018-09-25T09:26:43.062Z,19.68
2018-09-25T09:27:43.053Z,19.68
2018-09-25T09:28:43.039Z,19.62
2018-09-25T09:29:43.084Z,19.67
2018-09-25T09:30:43.017Z,19.70
2018-09-25T09:31:43.010Z,19.65
2018-09-25T09:32:43.089Z,19.71
2018-09-25T09:33:42.985Z,19.72
2018-09-25T09:34:42.974Z,19.68
2018-09-25T09:35:42.977Z,19.65
2018-09-25T09:36:42.956Z,19.76
2018-09-25T09:37:42.952Z,19.71
2018-09-25T09:38:42.929Z,19.70
2018-09-25T09:39:42.918Z,19.80
2018-09-25T09:40:42.922Z,19.78
2018-09-25T09:41:43.142Z,19.68
2018-09-25T09:42:42.893Z,19.75
2018-09-25T09:43:42.891Z,19.80
2018-09-25T09:44:42.863Z,19.76
2018-09-25T09:45:42.867Z,19.86
2018-09-25T09:46:42.841Z,19.72
2018-09-25T09:47:42.833Z,19.82
2018-09-25T09:48:42.822Z,19.80
2018-09-25T09:49:42.824Z,19.86
2018-09-25T09:50:42.812Z,19.75
2018-09-25T09:51:42.787Z,19.75
2018-09-25T09:52:42.776Z,19.71
2018-09-25T09:53:42.776Z,19.90
2018-09-25T09:54:42.754Z,19.89
2018-09-25T09:55:42.804Z,19.90
2018-09-25T09:56:42.732Z,19.90
2018-09-25T09:57:42.721Z,19.92
2018-09-25T09:58:42.713Z,19.92
2018-09-25T09:59:42.698Z,19.92
2018-09-25T10:00:42.703Z,19.98
2018-09-25T10:01:42.676Z,19.95
2018-09-25T10:02:42.665Z,19.97
2018-09-25T10:03:42.657Z,19.97
2018-09-25T10:04:42.644Z,20.02
2018-09-25T10:05:42.650Z,20.01
2018-09-25T10:06:42.648Z,20.08
2018-09-25T10:07:42.611Z,20.10
2018-09-25T10:08:42.600Z,20.12
2018-09-25T10:09:42.590Z,20.08
2018-09-25T10:10:42.606Z,20.13
2018-09-25T10:11:42.566Z,20.13
2018-09-25T10:12:42.556Z,20.08
2018-09-25T10:13:42.545Z,20.08
2018-09-25T10:14:42.533Z,20.13
2018-09-25T10:15:42.524Z,20.07
2018-09-25T10:16:42.531Z,20.07
2018-09-25T10:17:42.512Z,20.16
2018-09-25T10:18:42.548Z,20.13
2018-09-25T10:19:42.482Z,20.13
2018-09-25T10:20:42.468Z,20.10
2018-09-25T10:21:42.473Z,20.07
2018-09-25T10:22:42.458Z,20.13
2018-09-25T10:23:42.437Z,20.13
2018-09-25T10:24:42.427Z,20.16
2018-09-25T10:25:42.415Z,20.13
2018-09-25T10:26:42.417Z,20.15
2018-09-25T10:27:42.395Z,20.12
2018-09-25T10:28:42.381Z,20.15
2018-09-25T10:29:42.371Z,20.07
2018-09-25T10:30:42.357Z,20.13
2018-09-25T10:31:42.362Z,20.13
2018-09-25T10:32:42.336Z,20.13
2018-09-25T10:33:42.325Z,20.05
2018-09-25T10:34:42.315Z,20.08
2018-09-25T10:35:42.305Z,20.12
2018-09-25T10:36:42.308Z,20.16
2018-09-25T10:37:42.283Z,20.10
2018-09-25T10:38:42.272Z,20.17
2018-09-25T10:39:42.260Z,20.16
2018-09-25T10:40:42.252Z,20.15
2018-09-25T10:41:42.251Z,20.08
2018-09-25T10:42:42.228Z,20.12
2018-09-25T10:43:42.216Z,20.16
2018-09-25T10:44:42.206Z,20.12
2018-09-25T10:45:42.195Z,20.13
2018-09-25T10:46:42.200Z,20.10
2018-09-25T10:47:42.173Z,20.12
2018-09-25T10:48:42.162Z,20.08
2018-09-25T10:49:42.154Z,20.12
2018-09-25T10:50:42.144Z,20.13
2018-09-25T10:51:42.158Z,20.15
2018-09-25T10:52:42.119Z,20.07
2018-09-25T10:53:42.107Z,20.08
2018-09-25T10:54:42.097Z,20.10
2018-09-25T10:55:42.101Z,20.16
2018-09-25T10:56:42.076Z,20.16
2018-09-25T10:57:42.078Z,20.10
2018-09-25T10:58:42.052Z,20.08
2018-09-25T10:59:42.041Z,20.10
2018-09-25T11:00:42.031Z,20.15
2018-09-25T11:01:42.020Z,20.15
2018-09-25T11:02:42.045Z,20.10
2018-09-25T11:03:41.999Z,20.15
2018-09-25T11:04:41.989Z,20.12
2018-09-25T11:05:41.979Z,20.15
2018-09-25T11:06:41.967Z,20.15
2018-09-25T11:07:41.969Z,20.13
2018-09-25T11:08:41.963Z,20.25
2018-09-25T11:09:41.933Z,20.26
2018-09-25T11:10:41.935Z,20.22
2018-09-25T11:11:41.912Z,20.17
2018-09-25T11:12:41.916Z,20.22
2018-09-25T11:13:41.888Z,20.19
2018-09-25T11:14:41.879Z,20.22
2018-09-25T11:15:41.868Z,20.25
2018-09-25T11:16:41.857Z,20.23
2018-09-25T11:17:41.913Z,20.33
2018-09-25T11:18:41.836Z,20.40
2018-09-25T11:19:41.825Z,20.37
2018-09-25T11:20:41.815Z,20.46
2018-09-25T11:21:41.805Z,20.51
2018-09-25T11:22:41.813Z,20.68
2018-09-25T11:23:41.781Z,20.60
2018-09-25T11:24:41.769Z,20.78
2018-09-25T11:25:41.760Z,20.79
2018-09-25T11:26:41.749Z,20.85
2018-09-25T11:27:41.737Z,21.00
2018-09-25T11:28:41.745Z,21.01
2018-09-25T11:29:41.715Z,21.01
2018-09-25T11:30:41.705Z,21.13
2018-09-25T11:31:41.694Z,21.22
2018-09-25T11:32:41.687Z,21.31
2018-09-25T11:33:41.691Z,21.31
2018-09-25T11:34:41.662Z,21.43
2018-09-25T11:35:41.651Z,21.38
2018-09-25T11:36:41.640Z,21.46
2018-09-25T11:37:41.631Z,21.64
2018-09-25T11:38:41.634Z,21.77
2018-09-25T11:39:41.610Z,21.79
2018-09-25T11:40:41.604Z,21.99
2018-09-25T11:41:41.589Z,22.14
2018-09-25T11:42:41.579Z,22.14
2018-09-25T11:43:41.588Z,22.30
2018-09-25T11:44:41.556Z,22.39
2018-09-25T11:45:41.555Z,22.59
2018-09-25T11:46:41.618Z,22.67
2018-09-25T11:47:41.535Z,22.88
2018-09-25T11:48:41.530Z,23.01
2018-09-25T11:49:41.553Z,23.14
2018-09-25T11:50:41.493Z,23.29
2018-09-25T11:51:41.487Z,23.42
2018-09-25T11:52:41.513Z,23.57
2018-09-25T11:53:41.475Z,23.69
2018-09-25T11:54:41.452Z,23.77
2018-09-25T11:55:41.439Z,24.05
2018-09-25T11:56:41.428Z,24.11
2018-09-25T11:57:41.429Z,24.27
2018-09-25T11:58:41.420Z,24.49
2018-09-25T11:59:41.394Z,24.60
2018-09-25T12:00:41.385Z,24.39
2018-09-25T12:01:41.377Z,24.39
2018-09-25T12:02:41.361Z,24.52
2018-09-25T12:03:41.378Z,24.64
2018-09-25T12:04:41.339Z,24.86
2018-09-25T12:05:41.328Z,25.16
2018-09-25T12:06:41.316Z,25.23
2018-09-25T12:07:41.306Z,25.39
2018-09-25T12:08:41.294Z,25.45
2018-09-25T12:09:41.299Z,25.44
2018-09-25T12:10:41.271Z,25.57
2018-09-25T12:11:41.262Z,25.59
2018-09-25T12:12:41.248Z,25.71
2018-09-25T12:13:41.286Z,25.75
2018-09-25T12:14:41.244Z,25.83
2018-09-25T12:15:41.216Z,25.91
2018-09-25T12:16:41.204Z,25.97
2018-09-25T12:17:41.194Z,26.16
2018-09-25T12:18:41.185Z,26.16
2018-09-25T12:19:41.188Z,26.20
2018-09-25T12:20:41.167Z,26.32
2018-09-25T12:21:41.149Z,26.28
2018-09-25T12:22:41.137Z,26.36
2018-09-25T12:23:41.126Z,26.46
2018-09-25T12:24:41.134Z,26.50
2018-09-25T12:25:41.104Z,26.51
2018-09-25T12:26:41.095Z,26.61
2018-09-25T12:27:41.084Z,26.72
2018-09-25T12:28:41.072Z,26.79
2018-09-25T12:29:41.077Z,26.75
2018-09-25T12:30:41.052Z,26.86
2018-09-25T12:31:41.040Z,26.84
2018-09-25T12:32:41.090Z,26.94
2018-09-25T12:33:41.021Z,26.96
2018-09-25T12:34:41.022Z,26.96
2018-09-25T12:35:40.998Z,26.94
2018-09-25T12:36:40.987Z,27.13
2018-09-25T12:37:41.025Z,27.12
2018-09-25T12:38:40.985Z,27.23
2018-09-25T12:39:40.969Z,27.25
2018-09-25T12:40:40.945Z,27.30
2018-09-25T12:41:40.933Z,27.30
2018-09-25T12:42:40.921Z,27.46
2018-09-25T12:43:40.910Z,27.55
2018-09-25T12:44:40.928Z,27.59
2018-09-25T12:45:40.889Z,27.61
2018-09-25T12:46:40.879Z,27.61
2018-09-25T12:47:40.869Z,27.71
2018-09-25T12:48:40.858Z,27.74
2018-09-25T12:49:40.846Z,27.86
2018-09-25T12:50:40.854Z,27.81
2018-09-25T12:51:40.827Z,27.88
2018-09-25T12:52:40.814Z,27.95